createdAt,value
2022-07-25T00:00:34.160Z,6.47
2022-07-25T00:03:02.708Z,5.70
2022-07-25T00:05:37.605Z,5.93
2022-07-25T00:08:06.671Z,6.37
2022-07-25T00:10:34.712Z,5.77
2022-07-25T00:13:02.847Z,5.93
2022-07-25T00:15:31.128Z,6.20
2022-07-25T00:17:59.159Z,6.20
2022-07-25T00:20:27.270Z,6.97
2022-07-25T00:22:56.682Z,7.10
2022-07-25T00:25:24.723Z,6.57
2022-07-25T00:27:53.020Z,5.70
2022-07-25T00:30:21.114Z,6.07
2022-07-25T00:32:49.239Z,6.00
2022-07-25T00:35:17.293Z,6.37
2022-07-25T00:37:45.371Z,6.17
2022-07-25T00:40:15.113Z,5.97
2022-07-25T00:42:43.159Z,5.97
2022-07-25T00:45:11.922Z,6.40
2022-07-25T00:47:39.945Z,6.03
2022-07-25T00:50:09.182Z,6.40
2022-07-25T00:52:37.470Z,6.53
2022-07-25T00:55:06.444Z,6.93
2022-07-25T00:57:36.046Z,7.27
2022-07-25T01:00:07.120Z,6.57
2022-07-25T01:02:35.365Z,7.03
2022-07-25T01:05:03.694Z,7.50
2022-07-25T01:07:32.091Z,6.27
2022-07-25T01:10:00.610Z,7.50
2022-07-25T01:12:28.984Z,6.80
2022-07-25T01:14:58.520Z,7.67
2022-07-25T01:17:26.613Z,6.70
2022-07-25T01:19:54.638Z,6.90
2022-07-25T01:22:23.987Z,7.13
2022-07-25T01:24:51.994Z,7.27
2022-07-25T01:27:20.083Z,6.60
2022-07-25T01:29:48.107Z,6.97
2022-07-25T01:32:16.148Z,6.17
2022-07-25T01:34:44.164Z,7.60
2022-07-25T01:37:12.220Z,6.60
2022-07-25T01:39:41.599Z,6.73
2022-07-25T01:42:09.718Z,6.57
2022-07-25T01:44:37.729Z,7.20
2022-07-25T01:47:06.169Z,5.37
2022-07-25T01:49:34.763Z,6.90
2022-07-25T01:52:02.821Z,7.00
2022-07-25T01:54:30.900Z,6.80
2022-07-25T01:57:01.398Z,7.50
2022-07-25T01:59:29.803Z,7.27
2022-07-25T02:01:57.976Z,7.30
2022-07-25T02:04:26.117Z,7.43
2022-07-25T02:06:54.157Z,7.67
2022-07-25T02:09:22.260Z,6.80
2022-07-25T02:11:50.340Z,7.20
2022-07-25T02:14:19.840Z,7.53
2022-07-25T02:16:47.950Z,7.60
2022-07-25T02:19:16.098Z,7.23
2022-07-25T02:21:44.372Z,6.93
2022-07-25T02:24:12.541Z,6.33
2022-07-25T02:26:40.583Z,7.40
2022-07-25T02:29:08.871Z,7.00
2022-07-25T02:31:38.555Z,8.03
2022-07-25T02:34:07.140Z,7.20
2022-07-25T02:36:35.447Z,7.30
2022-07-25T02:39:03.647Z,7.67
2022-07-25T02:41:56.477Z,7.67
2022-07-25T02:44:24.625Z,7.90
2022-07-25T02:46:54.017Z,7.90
2022-07-25T02:49:22.300Z,8.03
2022-07-25T02:51:50.468Z,7.57
2022-07-25T02:54:20.118Z,6.90
2022-07-25T02:56:48.186Z,8.30
2022-07-25T02:59:16.314Z,7.97
2022-07-25T03:01:44.479Z,8.33
2022-07-25T03:04:14.031Z,7.40
2022-07-25T03:06:44.663Z,8.10
2022-07-25T03:09:12.776Z,7.80
2022-07-25T03:11:40.803Z,7.60
2022-07-25T03:14:09.803Z,7.40
2022-07-25T03:16:38.310Z,7.40
2022-07-25T03:19:10.299Z,7.60
2022-07-25T03:21:40.020Z,7.70
2022-07-25T03:24:08.886Z,7.53
2022-07-25T03:26:37.242Z,7.60
2022-07-25T03:29:05.411Z,7.93
2022-07-25T03:31:34.593Z,7.53
2022-07-25T03:34:03.191Z,7.03
2022-07-25T03:36:31.499Z,6.63
2022-07-25T03:39:01.203Z,7.77
2022-07-25T03:41:33.652Z,7.37
2022-07-25T03:44:01.720Z,7.17
2022-07-25T03:46:29.949Z,7.40
2022-07-25T03:48:58.185Z,7.50
2022-07-25T03:51:26.347Z,7.73
2022-07-25T03:54:03.828Z,7.27
2022-07-25T03:56:43.665Z,7.97
2022-07-25T03:59:13.794Z,8.10
2022-07-25T04:01:43.142Z,7.00
2022-07-25T04:04:11.801Z,7.30
2022-07-25T04:06:40.864Z,7.37
2022-07-25T04:09:10.222Z,7.73
2022-07-25T04:11:40.519Z,7.77
2022-07-25T04:14:09.184Z,8.40
2022-07-25T04:16:37.714Z,8.10
2022-07-25T04:19:08.732Z,6.63
2022-07-25T04:21:36.886Z,6.90
2022-07-25T04:24:05.449Z,8.20
2022-07-25T04:26:33.923Z,7.33
2022-07-25T04:29:04.035Z,6.93
2022-07-25T04:31:32.192Z,7.80
2022-07-25T04:34:01.119Z,6.80
2022-07-25T04:36:29.858Z,7.70
2022-07-25T04:38:57.967Z,8.53
2022-07-25T04:41:26.052Z,7.90
2022-07-25T04:43:54.163Z,6.90
2022-07-25T04:46:24.099Z,7.60
2022-07-25T04:48:52.433Z,7.70
2022-07-25T04:51:20.512Z,7.27
2022-07-25T04:53:48.578Z,6.77
2022-07-25T04:56:16.887Z,7.43
2022-07-25T04:58:45.142Z,7.70
2022-07-25T05:01:13.447Z,8.30
2022-07-25T05:03:49.833Z,7.40
2022-07-25T05:06:19.576Z,8.17
2022-07-25T05:08:47.972Z,8.37
2022-07-25T05:11:16.060Z,9.40
2022-07-25T05:13:44.131Z,8.90
2022-07-25T05:16:12.247Z,9.27
2022-07-25T05:18:40.536Z,8.57
2022-07-25T05:21:12.833Z,9.90
2022-07-25T05:23:41.007Z,11.13
2022-07-25T05:26:09.379Z,10.27
2022-07-25T05:28:37.509Z,9.70
2022-07-25T05:31:05.825Z,10.30
2022-07-25T05:33:35.199Z,10.80
2022-07-25T05:36:05.199Z,11.70
2022-07-25T05:38:34.716Z,10.33
2022-07-25T05:41:02.763Z,10.60
2022-07-25T05:43:30.874Z,10.73
2022-07-25T05:46:02.206Z,11.33
2022-07-25T05:48:30.360Z,11.40
2022-07-25T05:50:59.454Z,10.53
2022-07-25T05:53:27.538Z,10.17
2022-07-25T05:55:57.041Z,9.63
2022-07-25T05:58:29.741Z,10.13
2022-07-25T06:00:58.727Z,9.40
2022-07-25T06:03:26.941Z,9.10
2022-07-25T06:05:56.511Z,9.57
2022-07-25T06:08:24.928Z,9.60
2022-07-25T06:10:53.100Z,9.80
2022-07-25T06:13:23.619Z,9.13
2022-07-25T06:15:51.882Z,9.10
2022-07-25T06:18:20.126Z,8.50
2022-07-25T06:20:48.871Z,8.67
2022-07-25T06:23:17.055Z,9.10
2022-07-25T06:25:49.944Z,8.00
2022-07-25T06:28:19.022Z,8.53
2022-07-25T06:30:49.677Z,8.87
2022-07-25T06:33:17.790Z,9.00
2022-07-25T06:35:45.885Z,9.50
2022-07-25T06:38:14.005Z,8.77
2022-07-25T06:40:42.061Z,8.37
2022-07-25T06:43:10.427Z,8.70
2022-07-25T06:45:38.491Z,9.80
2022-07-25T06:48:08.437Z,8.97
2022-07-25T06:50:36.549Z,9.80
2022-07-25T06:53:04.691Z,9.70
2022-07-25T06:55:33.006Z,9.27
2022-07-25T06:58:01.099Z,10.40
2022-07-25T07:00:29.574Z,8.87
2022-07-25T07:03:01.404Z,8.80
2022-07-25T07:05:32.829Z,9.48
2022-07-25T07:08:01.756Z,9.97
2022-07-25T07:10:29.938Z,9.87
2022-07-25T07:13:07.842Z,8.27
2022-07-25T07:15:36.794Z,8.50
2022-07-25T07:18:06.370Z,9.83
2022-07-25T07:20:36.385Z,8.30
2022-07-25T07:23:04.513Z,8.37
2022-07-25T07:25:34.688Z,8.70
2022-07-25T07:28:03.244Z,8.40
2022-07-25T07:30:58.320Z,7.80
2022-07-25T07:33:19.664Z,8.47
2022-07-25T07:35:49.141Z,8.30
2022-07-25T07:38:18.024Z,7.80
2022-07-25T07:40:46.103Z,9.20
2022-07-25T07:43:14.191Z,8.13
2022-07-25T07:45:43.159Z,7.73
2022-07-25T07:48:11.330Z,7.63
2022-07-25T07:50:39.404Z,8.23
2022-07-25T07:53:08.828Z,8.53
2022-07-25T07:55:45.340Z,6.93
2022-07-25T07:58:15.730Z,8.00
2022-07-25T08:00:44.370Z,8.40
2022-07-25T08:03:12.527Z,7.37
2022-07-25T08:05:43.223Z,7.23
2022-07-25T08:08:14.010Z,7.50
2022-07-25T08:10:44.223Z,7.57
2022-07-25T08:13:16.636Z,6.80
2022-07-25T08:15:46.669Z,7.77
2022-07-25T08:18:17.654Z,8.13
2022-07-25T08:20:46.392Z,7.10
2022-07-25T08:23:15.902Z,7.70
2022-07-25T08:25:44.351Z,7.90
2022-07-25T08:28:12.821Z,7.10
2022-07-25T08:30:42.170Z,6.77
2022-07-25T08:33:13.414Z,7.77
2022-07-25T08:35:42.048Z,7.10
2022-07-25T08:38:11.644Z,7.07
2022-07-25T08:40:41.340Z,6.60
2022-07-25T08:43:12.892Z,7.00
2022-07-25T08:45:45.913Z,7.40
2022-07-25T08:48:14.478Z,6.20
2022-07-25T08:50:42.635Z,7.17
2022-07-25T08:53:32.038Z,6.87
2022-07-25T08:56:00.235Z,6.23
2022-07-25T08:58:28.344Z,7.37
2022-07-25T09:00:58.249Z,6.80
2022-07-25T09:03:28.843Z,7.60
2022-07-25T09:05:56.951Z,6.43
2022-07-25T09:08:25.087Z,7.27
2022-07-25T09:10:54.267Z,7.07
2022-07-25T09:13:24.142Z,7.03
2022-07-25T09:15:53.838Z,7.30
2022-07-25T09:18:24.855Z,6.90
2022-07-25T09:20:54.736Z,7.17
2022-07-25T09:23:30.580Z,6.97
2022-07-25T09:26:05.885Z,6.57
2022-07-25T09:28:42.376Z,6.53
2022-07-25T09:31:10.777Z,7.03
2022-07-25T09:33:47.713Z,6.77
2022-07-25T09:36:16.100Z,6.90
2022-07-25T09:38:53.605Z,7.17
2022-07-25T09:41:21.824Z,7.47
2022-07-25T09:43:51.278Z,6.40
2022-07-25T09:46:19.644Z,6.63
2022-07-25T09:48:58.220Z,7.40
2022-07-25T09:51:26.758Z,6.70
2022-07-25T09:53:54.794Z,6.83
2022-07-25T09:56:48.082Z,7.20
2022-07-25T09:59:17.579Z,7.53
2022-07-25T10:01:50.869Z,7.33
2022-07-25T10:04:23.278Z,6.97
2022-07-25T10:06:56.150Z,6.87
2022-07-25T10:09:24.852Z,7.00
2022-07-25T10:12:06.259Z,6.83
2022-07-25T10:14:36.194Z,6.53
2022-07-25T10:17:04.791Z,6.80
2022-07-25T10:19:49.191Z,7.00
2022-07-25T10:22:34.285Z,6.80
2022-07-25T10:25:14.993Z,6.50
2022-07-25T10:28:10.115Z,7.37
2022-07-25T10:30:41.485Z,6.83
2022-07-25T10:33:13.388Z,6.37
2022-07-25T10:35:43.903Z,6.93
2022-07-25T10:38:12.180Z,6.90
2022-07-25T10:40:42.441Z,7.00
2022-07-25T10:43:13.644Z,6.53
2022-07-25T10:45:51.119Z,6.50
2022-07-25T10:48:23.246Z,6.80
2022-07-25T10:50:55.924Z,6.70
2022-07-25T10:53:39.421Z,6.80
2022-07-25T10:56:09.801Z,6.37
2022-07-25T10:58:45.406Z,6.70
2022-07-25T11:01:15.715Z,6.73
2022-07-25T11:03:45.671Z,6.70
2022-07-25T11:06:15.193Z,7.00
2022-07-25T11:08:43.922Z,6.27
2022-07-25T11:11:12.856Z,6.33
2022-07-25T11:13:41.358Z,7.10
2022-07-25T11:16:10.732Z,6.00
2022-07-25T11:18:41.639Z,6.03
2022-07-25T11:21:10.448Z,6.13
2022-07-25T11:23:38.508Z,6.10
2022-07-25T11:26:08.406Z,6.40
2022-07-25T11:28:41.019Z,6.27
2022-07-25T11:31:09.123Z,5.77
2022-07-25T11:33:38.747Z,5.37
2022-07-25T11:36:10.718Z,5.70
2022-07-25T11:38:39.297Z,5.80
2022-07-25T11:41:07.904Z,5.57
2022-07-25T11:43:35.968Z,5.60
2022-07-25T11:46:06.667Z,5.30
2022-07-25T11:48:37.062Z,5.50
2022-07-25T11:51:18.280Z,4.73
2022-07-25T11:53:49.737Z,5.00
2022-07-25T11:56:41.264Z,5.50
2022-07-25T11:59:08.728Z,5.07
2022-07-25T12:01:38.750Z,4.75
2022-07-25T12:04:14.539Z,5.43
2022-07-25T12:06:44.625Z,5.00
2022-07-25T12:09:19.072Z,5.57
2022-07-25T12:11:48.839Z,4.40
2022-07-25T12:14:17.182Z,4.82
2022-07-25T12:16:45.285Z,5.03
2022-07-25T12:19:20.436Z,4.47
2022-07-25T12:21:49.884Z,5.07
2022-07-25T12:24:17.996Z,4.60
2022-07-25T12:26:46.113Z,5.43
2022-07-25T12:29:38.977Z,4.82
2022-07-25T12:32:07.775Z,4.82
2022-07-25T12:34:35.871Z,5.07
2022-07-25T12:37:05.307Z,4.38
2022-07-25T12:39:33.608Z,4.70
2022-07-25T12:42:01.655Z,4.57
2022-07-25T12:44:29.877Z,4.60
2022-07-25T12:46:57.990Z,4.55
2022-07-25T12:49:26.147Z,4.85
2022-07-25T12:51:58.058Z,4.65
2022-07-25T12:54:27.760Z,4.78
2022-07-25T12:56:55.904Z,4.28
2022-07-25T12:59:24.283Z,4.80
2022-07-25T13:01:52.500Z,4.32
2022-07-25T13:04:20.683Z,4.57
2022-07-25T13:06:48.797Z,4.50
2022-07-25T13:09:16.999Z,4.50
2022-07-25T13:11:46.423Z,4.63
2022-07-25T13:14:16.085Z,4.20
2022-07-25T13:16:44.347Z,4.18
2022-07-25T13:19:12.568Z,4.47
2022-07-25T13:21:40.679Z,3.67
2022-07-25T13:24:09.101Z,4.63
2022-07-25T13:26:37.955Z,4.47
2022-07-25T13:29:09.585Z,4.43
2022-07-25T13:31:38.578Z,4.30
2022-07-25T13:34:07.113Z,4.13
2022-07-25T13:36:35.968Z,3.90
2022-07-25T13:39:04.793Z,4.40
2022-07-25T13:41:33.500Z,3.97
2022-07-25T13:44:01.608Z,4.47
2022-07-25T13:46:31.091Z,3.85
2022-07-25T13:48:59.389Z,4.10
2022-07-25T13:51:27.629Z,4.15
2022-07-25T13:53:55.916Z,3.90
2022-07-25T13:56:23.999Z,3.72
2022-07-25T13:58:52.225Z,3.88
2022-07-25T14:01:20.394Z,4.22
2022-07-25T14:03:49.990Z,4.10
2022-07-25T14:06:18.079Z,3.28
2022-07-25T14:08:46.166Z,3.88
2022-07-25T14:11:14.628Z,3.85
2022-07-25T14:13:43.542Z,3.78
2022-07-25T14:16:11.814Z,3.33
2022-07-25T14:18:39.972Z,3.38
2022-07-25T14:21:09.421Z,3.47
2022-07-25T14:23:37.560Z,3.47
2022-07-25T14:26:05.746Z,3.53
2022-07-25T14:28:33.911Z,3.47
2022-07-25T14:31:01.968Z,3.95
2022-07-25T14:33:30.033Z,4.13
2022-07-25T14:35:58.081Z,3.05
2022-07-25T14:38:27.607Z,3.00
2022-07-25T14:40:55.636Z,3.40
2022-07-25T14:43:23.726Z,3.85
2022-07-25T14:45:51.808Z,3.08
2022-07-25T14:48:19.999Z,3.65
2022-07-25T14:50:48.161Z,3.30
2022-07-25T14:53:16.302Z,3.47
2022-07-25T14:55:45.768Z,3.10
2022-07-25T14:58:15.472Z,3.72
2022-07-25T15:00:43.872Z,3.40
2022-07-25T15:03:11.970Z,3.08
2022-07-25T15:05:40.053Z,3.33
2022-07-25T15:08:08.328Z,3.08
2022-07-25T15:10:36.472Z,3.40
2022-07-25T15:13:30.035Z,3.45
2022-07-25T15:15:54.015Z,3.17
2022-07-25T15:18:22.176Z,3.22
2022-07-25T15:20:51.898Z,3.63
2022-07-25T15:23:21.374Z,3.40
2022-07-25T15:26:04.909Z,3.58
2022-07-25T15:28:35.657Z,2.95
2022-07-25T15:31:03.798Z,3.25
2022-07-25T15:33:31.899Z,3.25
2022-07-25T15:36:00.281Z,3.28
2022-07-25T15:38:28.998Z,2.78
2022-07-25T15:40:57.561Z,2.80
2022-07-25T15:43:25.745Z,2.70
2022-07-25T15:45:55.172Z,2.80
2022-07-25T15:48:23.679Z,2.78
2022-07-25T15:50:52.576Z,2.80
2022-07-25T15:53:20.680Z,2.60
2022-07-25T15:55:48.843Z,2.63
2022-07-25T15:58:17.002Z,3.08
2022-07-25T16:00:45.259Z,2.65
2022-07-25T16:03:14.902Z,2.90
2022-07-25T16:05:44.604Z,2.97
2022-07-25T16:08:12.733Z,2.63
2022-07-25T16:10:40.783Z,2.67
2022-07-25T16:13:08.866Z,2.83
2022-07-25T16:15:36.921Z,2.80
2022-07-25T16:18:05.179Z,2.75
2022-07-25T16:20:35.343Z,2.55
2022-07-25T16:23:03.449Z,2.75
2022-07-25T16:25:56.765Z,2.92
2022-07-25T16:28:24.959Z,2.80
2022-07-25T16:30:53.022Z,2.95
2022-07-25T16:33:21.106Z,2.63
2022-07-25T16:35:50.508Z,2.90
2022-07-25T16:38:18.614Z,2.80
2022-07-25T16:40:46.753Z,3.08
2022-07-25T16:43:15.218Z,2.65
2022-07-25T16:45:43.306Z,2.95
2022-07-25T16:48:11.752Z,2.97
2022-07-25T16:50:40.049Z,3.08
2022-07-25T16:53:09.480Z,3.40
2022-07-25T16:55:37.634Z,3.00
2022-07-25T16:58:05.841Z,3.40
2022-07-25T17:00:34.042Z,2.90
2022-07-25T17:03:02.193Z,3.50
2022-07-25T17:05:30.296Z,3.45
2022-07-25T17:07:59.813Z,3.20
2022-07-25T17:10:29.992Z,3.38
2022-07-25T17:12:58.372Z,3.80
2022-07-25T17:15:26.471Z,3.70
2022-07-25T17:17:54.927Z,3.90
2022-07-25T17:20:23.039Z,5.22
2022-07-25T17:22:51.133Z,5.00
2022-07-25T17:25:19.273Z,4.30
2022-07-25T17:27:48.758Z,5.18
2022-07-25T17:30:16.861Z,4.88
2022-07-25T17:32:45.073Z,6.40
2022-07-25T17:35:13.471Z,5.10
2022-07-25T17:37:41.844Z,4.88
2022-07-25T17:40:11.219Z,4.75
2022-07-25T17:42:44.726Z,4.25
2022-07-25T17:45:15.475Z,4.35
2022-07-25T17:47:44.346Z,4.68
2022-07-25T17:50:12.652Z,4.68
2022-07-25T17:52:40.881Z,5.20
2022-07-25T17:55:09.729Z,5.03
2022-07-25T17:57:37.843Z,5.40
2022-07-25T18:00:07.142Z,4.72
2022-07-25T18:02:41.149Z,4.80
2022-07-25T18:05:10.133Z,5.43
2022-07-25T18:07:40.707Z,4.95
2022-07-25T18:10:09.368Z,4.72
2022-07-25T18:12:37.414Z,4.95
2022-07-25T18:15:07.584Z,5.03
2022-07-25T18:17:36.217Z,4.43
2022-07-25T18:20:06.132Z,4.38
2022-07-25T18:22:34.186Z,4.65
2022-07-25T18:25:02.286Z,4.50
2022-07-25T18:27:30.341Z,4.60
2022-07-25T18:29:58.482Z,4.20
2022-07-25T18:32:26.562Z,4.40
2022-07-25T18:34:54.623Z,3.90
2022-07-25T18:37:24.024Z,5.73
2022-07-25T18:39:52.085Z,3.92
2022-07-25T18:42:20.182Z,4.27
2022-07-25T18:44:48.409Z,4.05
2022-07-25T18:47:16.972Z,4.00
2022-07-25T18:49:45.910Z,4.33
2022-07-25T18:52:13.940Z,3.73
2022-07-25T18:54:43.433Z,3.30
2022-07-25T18:57:11.552Z,3.90
2022-07-25T18:59:39.806Z,4.20
2022-07-25T19:02:07.893Z,3.63
2022-07-25T19:04:36.119Z,3.77
2022-07-25T19:07:04.246Z,4.20
2022-07-25T19:09:32.295Z,4.40
2022-07-25T19:12:02.221Z,4.07
2022-07-25T19:14:30.772Z,4.40
2022-07-25T19:16:59.352Z,3.87
2022-07-25T19:19:27.671Z,4.13
2022-07-25T19:21:55.766Z,4.57
2022-07-25T19:24:24.201Z,4.20
2022-07-25T19:26:52.523Z,4.50
2022-07-25T19:29:21.962Z,4.10
2022-07-25T19:31:50.171Z,3.83
2022-07-25T19:34:18.320Z,3.50
2022-07-25T19:36:46.514Z,3.77
2022-07-25T19:39:14.792Z,4.63
2022-07-25T19:41:46.895Z,3.67
2022-07-25T19:44:15.518Z,4.07
2022-07-25T19:46:45.105Z,4.70
2022-07-25T19:49:13.290Z,3.97
2022-07-25T19:51:41.585Z,4.20
2022-07-25T19:54:10.140Z,4.10
2022-07-25T19:56:38.588Z,4.20
2022-07-25T19:59:06.768Z,4.20
2022-07-25T20:01:36.063Z,4.10
2022-07-25T20:04:09.074Z,3.77
2022-07-25T20:06:37.542Z,4.23
2022-07-25T20:09:06.633Z,3.87
2022-07-25T20:11:34.949Z,4.30
2022-07-25T20:14:03.048Z,3.67
2022-07-25T20:16:31.408Z,3.70
2022-07-25T20:19:00.308Z,3.83
2022-07-25T20:21:29.787Z,3.90
2022-07-25T20:23:58.314Z,4.00
2022-07-25T20:26:26.448Z,3.50
2022-07-25T20:28:55.203Z,3.80
2022-07-25T20:31:24.393Z,3.90
2022-07-25T20:33:52.772Z,4.17
2022-07-25T20:36:20.930Z,4.13
2022-07-25T20:38:50.493Z,3.83
2022-07-25T20:41:18.647Z,3.80
2022-07-25T20:43:47.170Z,4.20
2022-07-25T20:46:15.359Z,3.93
2022-07-25T20:48:43.562Z,3.60
2022-07-25T20:51:13.044Z,3.70
2022-07-25T20:53:41.928Z,3.70
2022-07-25T20:56:11.383Z,3.70
2022-07-25T20:58:40.013Z,3.73
2022-07-25T21:01:08.145Z,3.60
2022-07-25T21:03:36.455Z,3.77
2022-07-25T21:06:04.736Z,4.00
2022-07-25T21:08:32.875Z,3.80
2022-07-25T21:11:01.353Z,4.07
2022-07-25T21:13:32.966Z,3.40
2022-07-25T21:16:01.412Z,3.87
2022-07-25T21:18:29.530Z,3.70
2022-07-25T21:20:57.622Z,3.23
2022-07-25T21:23:26.430Z,3.63
2022-07-25T21:25:54.493Z,3.97
2022-07-25T21:28:22.684Z,3.90
2022-07-25T21:30:52.394Z,3.50
2022-07-25T21:33:20.464Z,3.23
2022-07-25T21:35:53.166Z,3.30
2022-07-25T21:38:26.865Z,3.90
2022-07-25T21:40:56.724Z,4.30
2022-07-25T21:43:25.051Z,3.77
2022-07-25T21:45:54.607Z,3.77
2022-07-25T21:48:42.955Z,3.70
2022-07-25T21:51:10.313Z,3.83
2022-07-25T21:53:47.763Z,4.30
2022-07-25T21:56:16.300Z,4.33
2022-07-25T21:58:44.716Z,4.80
2022-07-25T22:01:14.194Z,4.53
2022-07-25T22:03:42.417Z,4.60
2022-07-25T22:06:11.207Z,5.13
2022-07-25T22:08:39.792Z,4.90
2022-07-25T22:11:16.347Z,5.23
2022-07-25T22:13:55.974Z,4.80
2022-07-25T22:16:25.420Z,5.37
2022-07-25T22:18:53.503Z,5.50
2022-07-25T22:21:45.992Z,5.23
2022-07-25T22:24:14.149Z,5.23
2022-07-25T22:26:42.227Z,4.73
2022-07-25T22:29:10.982Z,4.17
2022-07-25T22:31:40.866Z,4.20
2022-07-25T22:34:09.298Z,4.60
2022-07-25T22:36:37.347Z,4.73
2022-07-25T22:39:06.030Z,4.10
2022-07-25T22:41:34.819Z,4.50
2022-07-25T22:44:02.917Z,4.60
2022-07-25T22:46:32.119Z,4.43
2022-07-25T22:49:02.542Z,4.60
2022-07-25T22:51:30.638Z,4.30
2022-07-25T22:53:59.913Z,4.23
2022-07-25T22:56:28.862Z,4.30
2022-07-25T22:58:57.116Z,4.63
2022-07-25T23:01:25.533Z,4.63
2022-07-25T23:03:53.677Z,4.50
2022-07-25T23:06:23.649Z,4.07
2022-07-25T23:08:51.773Z,4.30
2022-07-25T23:11:19.795Z,4.03
2022-07-25T23:13:47.867Z,4.37
2022-07-25T23:16:16.060Z,4.50
2022-07-25T23:18:44.078Z,4.23
2022-07-25T23:21:12.276Z,4.37
2022-07-25T23:23:41.689Z,4.33
2022-07-25T23:26:09.845Z,4.17
2022-07-25T23:28:38.066Z,4.40
2022-07-25T23:31:06.293Z,4.90
2022-07-25T23:33:34.357Z,4.80
2022-07-25T23:36:02.552Z,5.23
2022-07-25T23:38:30.755Z,5.80
2022-07-25T23:41:00.153Z,5.47
2022-07-25T23:43:53.830Z,5.30
2022-07-25T23:46:16.361Z,6.70
2022-07-25T23:48:46.346Z,6.67
2022-07-25T23:51:16.584Z,7.07
2022-07-25T23:53:44.693Z,6.67
2022-07-25T23:56:20.180Z,7.30
2022-07-25T23:58:50.035Z,9.57
